Terminal Aerodrome Forecast
Issued by NWS Twin Cities, MN

Home | Current Version | Previous Version | Text Only | Print | Product List | Glossary On
Versions: 1 2 3 4 5 6 7 8 9 10 11 12 13 14 15 16 17 18
000
FTUS43 KMPX 101725
TAFEAU
TAF
KEAU 101725Z 1018/1118 VRB03KT P6SM BKN120
     FM110100 10004KT 2SM -SN SCT015 OVC025
     FM110400 10005KT 1 1/2SM -SN SCT007 OVC015
     FM111200 09008KT 1SM -SN BKN007 OVC014
     FM111500 10007KT 2SM -SN SCT007 OVC015=

USA.gov is the U.S. government's official web portal to all federal, state and local government web resources and services.